sensor_id;sensor_type;location;lat;lon;timestamp;P1;durP1;ratioP1;P2;durP2;ratioP2
68866;SDS011;56451;44.804;20.476;2023-03-20T00:01:54;38.33;;;19.92;;
68866;SDS011;56451;44.804;20.476;2023-03-20T00:04:20;35.10;;;19.65;;
68866;SDS011;56451;44.804;20.476;2023-03-20T00:06:46;41.67;;;21.47;;
68866;SDS011;56451;44.804;20.476;2023-03-20T00:09:12;42.80;;;21.88;;
68866;SDS011;56451;44.804;20.476;2023-03-20T00:11:47;43.33;;;23.63;;
68866;SDS011;56451;44.804;20.476;2023-03-20T00:14:16;41.85;;;21.33;;
68866;SDS011;56451;44.804;20.476;2023-03-20T00:16:45;44.57;;;22.40;;
68866;SDS011;56451;44.804;20.476;2023-03-20T00:19:13;39.90;;;22.55;;
68866;SDS011;56451;44.804;20.476;2023-03-20T00:21:42;40.85;;;21.95;;
68866;SDS011;56451;44.804;20.476;2023-03-20T00:24:11;38.38;;;21.77;;
68866;SDS011;56451;44.804;20.476;2023-03-20T00:26:37;41.28;;;22.70;;
68866;SDS011;56451;44.804;20.476;2023-03-20T00:29:04;41.30;;;21.33;;
68866;SDS011;56451;44.804;20.476;2023-03-20T00:31:37;39.25;;;21.58;;
68866;SDS011;56451;44.804;20.476;2023-03-20T00:34:05;36.53;;;21.58;;
68866;SDS011;56451;44.804;20.476;2023-03-20T00:36:36;37.40;;;21.13;;
68866;SDS011;56451;44.804;20.476;2023-03-20T00:39:02;37.43;;;21.47;;
68866;SDS011;56451;44.804;20.476;2023-03-20T00:41:33;36.37;;;19.97;;
68866;SDS011;56451;44.804;20.476;2023-03-20T00:44:18;35.90;;;20.33;;
68866;SDS011;56451;44.804;20.476;2023-03-20T00:47:08;34.53;;;18.73;;
68866;SDS011;56451;44.804;20.476;2023-03-20T00:49:47;30.90;;;18.30;;
68866;SDS011;56451;44.804;20.476;2023-03-20T00:52:16;36.25;;;18.65;;
68866;SDS011;56451;44.804;20.476;2023-03-20T00:54:44;35.10;;;18.07;;
68866;SDS011;56451;44.804;20.476;2023-03-20T00:59:40;26.55;;;15.30;;
68866;SDS011;56451;44.804;20.476;2023-03-20T01:02:12;27.67;;;15.77;;
68866;SDS011;56451;44.804;20.476;2023-03-20T01:04:40;25.88;;;15.02;;
68866;SDS011;56451;44.804;20.476;2023-03-20T01:07:08;24.27;;;14.07;;
68866;SDS011;56451;44.804;20.476;2023-03-20T01:09:37;23.77;;;13.90;;
68866;SDS011;56451;44.804;20.476;2023-03-20T01:12:03;30.58;;;14.82;;
68866;SDS011;56451;44.804;20.476;2023-03-20T01:14:30;29.33;;;16.40;;
68866;SDS011;56451;44.804;20.476;2023-03-20T01:16:56;27.45;;;15.35;;
68866;SDS011;56451;44.804;20.476;2023-03-20T01:19:22;25.00;;;14.90;;
68866;SDS011;56451;44.804;20.476;2023-03-20T01:21:47;26.90;;;15.77;;
68866;SDS011;56451;44.804;20.476;2023-03-20T01:24:13;25.05;;;15.55;;
68866;SDS011;56451;44.804;20.476;2023-03-20T01:26:41;28.43;;;16.20;;
68866;SDS011;56451;44.804;20.476;2023-03-20T01:29:22;26.70;;;15.48;;
68866;SDS011;56451;44.804;20.476;2023-03-20T01:31:50;31.15;;;16.00;;
68866;SDS011;56451;44.804;20.476;2023-03-20T01:34:17;27.60;;;16.27;;
68866;SDS011;56451;44.804;20.476;2023-03-20T01:36:56;28.83;;;17.17;;
68866;SDS011;56451;44.804;20.476;2023-03-20T01:39:27;26.97;;;15.87;;
68866;SDS011;56451;44.804;20.476;2023-03-20T01:41:57;30.33;;;16.92;;
68866;SDS011;56451;44.804;20.476;2023-03-20T01:44:27;27.40;;;15.82;;
68866;SDS011;56451;44.804;20.476;2023-03-20T01:46:56;27.45;;;16.58;;
68866;SDS011;56451;44.804;20.476;2023-03-20T01:51:51;27.63;;;14.47;;
68866;SDS011;56451;44.804;20.476;2023-03-20T01:54:26;29.35;;;15.13;;
68866;SDS011;56451;44.804;20.476;2023-03-20T01:57:06;26.63;;;15.30;;
68866;SDS011;56451;44.804;20.476;2023-03-20T02:00:18;25.45;;;15.43;;
68866;SDS011;56451;44.804;20.476;2023-03-20T02:02:40;24.80;;;14.50;;
68866;SDS011;56451;44.804;20.476;2023-03-20T02:05:09;27.50;;;14.53;;
68866;SDS011;56451;44.804;20.476;2023-03-20T02:07:38;19.65;;;12.88;;
68866;SDS011;56451;44.804;20.476;2023-03-20T02:10:09;21.92;;;13.52;;
68866;SDS011;56451;44.804;20.476;2023-03-20T02:13:00;26.02;;;14.13;;
68866;SDS011;56451;44.804;20.476;2023-03-20T02:15:34;22.70;;;14.02;;
68866;SDS011;56451;44.804;20.476;2023-03-20T02:18:12;24.17;;;14.17;;
68866;SDS011;56451;44.804;20.476;2023-03-20T02:42:23;25.83;;;13.18;;
68866;SDS011;56451;44.804;20.476;2023-03-20T02:48:12;22.77;;;13.50;;
68866;SDS011;56451;44.804;20.476;2023-03-20T02:56:07;20.45;;;12.10;;
68866;SDS011;56451;44.804;20.476;2023-03-20T02:58:47;20.00;;;12.27;;
68866;SDS011;56451;44.804;20.476;2023-03-20T03:01:21;20.70;;;12.88;;
68866;SDS011;56451;44.804;20.476;2023-03-20T03:04:15;19.75;;;12.45;;
68866;SDS011;56451;44.804;20.476;2023-03-20T03:06:45;23.63;;;12.95;;
68866;SDS011;56451;44.804;20.476;2023-03-20T03:12:16;20.57;;;12.47;;
68866;SDS011;56451;44.804;20.476;2023-03-20T03:14:48;25.63;;;13.77;;
68866;SDS011;56451;44.804;20.476;2023-03-20T03:17:17;26.92;;;14.95;;
68866;SDS011;56451;44.804;20.476;2023-03-20T03:19:51;33.35;;;17.88;;
68866;SDS011;56451;44.804;20.476;2023-03-20T03:22:21;35.33;;;19.38;;
68866;SDS011;56451;44.804;20.476;2023-03-20T03:24:48;30.23;;;16.97;;
68866;SDS011;56451;44.804;20.476;2023-03-20T03:27:31;32.25;;;18.27;;
68866;SDS011;56451;44.804;20.476;2023-03-20T03:30:12;30.23;;;18.15;;
68866;SDS011;56451;44.804;20.476;2023-03-20T03:32:50;41.28;;;21.27;;
68866;SDS011;56451;44.804;20.476;2023-03-20T03:35:31;32.55;;;19.15;;
68866;SDS011;56451;44.804;20.476;2023-03-20T03:40:43;39.85;;;19.83;;
68866;SDS011;56451;44.804;20.476;2023-03-20T03:46:06;39.88;;;22.02;;
68866;SDS011;56451;44.804;20.476;2023-03-20T03:48:38;42.57;;;23.57;;
68866;SDS011;56451;44.804;20.476;2023-03-20T03:51:10;35.85;;;21.88;;
68866;SDS011;56451;44.804;20.476;2023-03-20T03:53:59;39.80;;;21.80;;
68866;SDS011;56451;44.804;20.476;2023-03-20T03:56:28;41.45;;;21.95;;
68866;SDS011;56451;44.804;20.476;2023-03-20T03:58:59;40.65;;;21.13;;
68866;SDS011;56451;44.804;20.476;2023-03-20T04:01:29;38.23;;;21.40;;
68866;SDS011;56451;44.804;20.476;2023-03-20T04:03:59;39.78;;;21.02;;
68866;SDS011;56451;44.804;20.476;2023-03-20T04:06:29;39.53;;;22.48;;
68866;SDS011;56451;44.804;20.476;2023-03-20T04:08:56;41.22;;;23.45;;
68866;SDS011;56451;44.804;20.476;2023-03-20T04:11:22;47.53;;;24.93;;
68866;SDS011;56451;44.804;20.476;2023-03-20T04:13:51;43.45;;;23.67;;
68866;SDS011;56451;44.804;20.476;2023-03-20T04:16:17;49.72;;;24.27;;
68866;SDS011;56451;44.804;20.476;2023-03-20T04:18:45;53.03;;;27.35;;
68866;SDS011;56451;44.804;20.476;2023-03-20T04:21:13;46.63;;;25.35;;
68866;SDS011;56451;44.804;20.476;2023-03-20T04:23:41;51.53;;;24.83;;
68866;SDS011;56451;44.804;20.476;2023-03-20T04:26:07;52.33;;;25.30;;
68866;SDS011;56451;44.804;20.476;2023-03-20T04:28:34;43.75;;;25.92;;
68866;SDS011;56451;44.804;20.476;2023-03-20T04:31:11;51.97;;;26.38;;
68866;SDS011;56451;44.804;20.476;2023-03-20T04:33:57;46.72;;;25.65;;
68866;SDS011;56451;44.804;20.476;2023-03-20T04:36:39;39.43;;;23.03;;
68866;SDS011;56451;44.804;20.476;2023-03-20T04:39:07;43.35;;;23.80;;
68866;SDS011;56451;44.804;20.476;2023-03-20T04:41:33;39.70;;;22.85;;
68866;SDS011;56451;44.804;20.476;2023-03-20T04:43:58;38.85;;;23.15;;
68866;SDS011;56451;44.804;20.476;2023-03-20T04:46:25;37.73;;;23.07;;
68866;SDS011;56451;44.804;20.476;2023-03-20T04:48:51;40.95;;;22.27;;
68866;SDS011;56451;44.804;20.476;2023-03-20T04:51:18;41.20;;;22.70;;
68866;SDS011;56451;44.804;20.476;2023-03-20T04:53:48;39.15;;;20.40;;
68866;SDS011;56451;44.804;20.476;2023-03-20T04:56:14;41.53;;;20.73;;
68866;SDS011;56451;44.804;20.476;2023-03-20T04:58:40;36.67;;;20.58;;
68866;SDS011;56451;44.804;20.476;2023-03-20T05:01:07;38.72;;;21.10;;
68866;SDS011;56451;44.804;20.476;2023-03-20T05:03:33;39.58;;;20.90;;
68866;SDS011;56451;44.804;20.476;2023-03-20T05:05:59;40.23;;;24.07;;
68866;SDS011;56451;44.804;20.476;2023-03-20T05:08:26;40.92;;;22.70;;
68866;SDS011;56451;44.804;20.476;2023-03-20T05:10:56;40.65;;;22.42;;
68866;SDS011;56451;44.804;20.476;2023-03-20T05:13:41;41.47;;;23.00;;
68866;SDS011;56451;44.804;20.476;2023-03-20T05:16:30;40.53;;;22.42;;
68866;SDS011;56451;44.804;20.476;2023-03-20T05:19:02;35.73;;;21.27;;
68866;SDS011;56451;44.804;20.476;2023-03-20T05:21:35;49.65;;;24.08;;
68866;SDS011;56451;44.804;20.476;2023-03-20T05:24:30;40.20;;;24.00;;
68866;SDS011;56451;44.804;20.476;2023-03-20T05:27:16;40.83;;;22.83;;
68866;SDS011;56451;44.804;20.476;2023-03-20T05:29:49;41.45;;;24.00;;
68866;SDS011;56451;44.804;20.476;2023-03-20T05:32:20;39.30;;;22.13;;
68866;SDS011;56451;44.804;20.476;2023-03-20T05:35:00;36.65;;;22.05;;
68866;SDS011;56451;44.804;20.476;2023-03-20T05:37:40;38.85;;;21.73;;
68866;SDS011;56451;44.804;20.476;2023-03-20T05:40:21;38.63;;;21.88;;
68866;SDS011;56451;44.804;20.476;2023-03-20T05:43:08;37.83;;;21.15;;
68866;SDS011;56451;44.804;20.476;2023-03-20T05:45:52;36.33;;;22.07;;
68866;SDS011;56451;44.804;20.476;2023-03-20T05:48:38;38.85;;;22.30;;
68866;SDS011;56451;44.804;20.476;2023-03-20T05:51:22;37.22;;;22.02;;
68866;SDS011;56451;44.804;20.476;2023-03-20T05:54:05;47.20;;;24.02;;
68866;SDS011;56451;44.804;20.476;2023-03-20T05:56:54;44.05;;;23.50;;
68866;SDS011;56451;44.804;20.476;2023-03-20T05:59:46;42.60;;;23.80;;
68866;SDS011;56451;44.804;20.476;2023-03-20T06:02:41;42.53;;;23.75;;
68866;SDS011;56451;44.804;20.476;2023-03-20T06:05:27;41.58;;;23.63;;
68866;SDS011;56451;44.804;20.476;2023-03-20T06:07:53;45.35;;;24.70;;
68866;SDS011;56451;44.804;20.476;2023-03-20T06:10:19;42.25;;;24.40;;
68866;SDS011;56451;44.804;20.476;2023-03-20T06:12:46;47.07;;;25.10;;
68866;SDS011;56451;44.804;20.476;2023-03-20T06:15:13;44.65;;;24.55;;
68866;SDS011;56451;44.804;20.476;2023-03-20T06:17:43;44.28;;;26.25;;
68866;SDS011;56451;44.804;20.476;2023-03-20T06:20:12;42.67;;;25.52;;
68866;SDS011;56451;44.804;20.476;2023-03-20T06:22:38;46.17;;;27.57;;
68866;SDS011;56451;44.804;20.476;2023-03-20T06:25:04;47.47;;;26.90;;
68866;SDS011;56451;44.804;20.476;2023-03-20T06:27:35;49.28;;;29.50;;
68866;SDS011;56451;44.804;20.476;2023-03-20T06:30:02;50.88;;;31.77;;
68866;SDS011;56451;44.804;20.476;2023-03-20T06:32:31;49.67;;;32.42;;
68866;SDS011;56451;44.804;20.476;2023-03-20T06:35:00;50.67;;;30.00;;
68866;SDS011;56451;44.804;20.476;2023-03-20T06:37:26;50.42;;;30.02;;
68866;SDS011;56451;44.804;20.476;2023-03-20T06:39:59;48.25;;;29.02;;
68866;SDS011;56451;44.804;20.476;2023-03-20T06:42:25;46.00;;;29.50;;
68866;SDS011;56451;44.804;20.476;2023-03-20T06:44:52;47.78;;;28.55;;
68866;SDS011;56451;44.804;20.476;2023-03-20T06:47:36;44.67;;;27.93;;
68866;SDS011;56451;44.804;20.476;2023-03-20T06:50:02;46.05;;;27.15;;
68866;SDS011;56451;44.804;20.476;2023-03-20T06:52:30;48.13;;;27.63;;
68866;SDS011;56451;44.804;20.476;2023-03-20T06:55:22;47.88;;;26.85;;
68866;SDS011;56451;44.804;20.476;2023-03-20T06:57:48;47.00;;;27.37;;
68866;SDS011;56451;44.804;20.476;2023-03-20T07:00:16;50.72;;;27.75;;
68866;SDS011;56451;44.804;20.476;2023-03-20T07:02:42;41.25;;;25.60;;
68866;SDS011;56451;44.804;20.476;2023-03-20T07:05:11;43.67;;;24.88;;
68866;SDS011;56451;44.804;20.476;2023-03-20T07:07:38;45.30;;;27.00;;
68866;SDS011;56451;44.804;20.476;2023-03-20T07:10:03;39.73;;;25.77;;
68866;SDS011;56451;44.804;20.476;2023-03-20T07:12:30;41.30;;;25.20;;
68866;SDS011;56451;44.804;20.476;2023-03-20T07:14:58;37.38;;;24.05;;
68866;SDS011;56451;44.804;20.476;2023-03-20T07:17:24;48.45;;;25.35;;
68866;SDS011;56451;44.804;20.476;2023-03-20T07:19:51;39.50;;;24.70;;
68866;SDS011;56451;44.804;20.476;2023-03-20T07:22:19;34.80;;;22.38;;
68866;SDS011;56451;44.804;20.476;2023-03-20T07:24:48;36.92;;;23.10;;
68866;SDS011;56451;44.804;20.476;2023-03-20T07:27:14;31.15;;;20.10;;
68866;SDS011;56451;44.804;20.476;2023-03-20T07:29:43;31.70;;;20.98;;
68866;SDS011;56451;44.804;20.476;2023-03-20T07:32:12;35.27;;;20.00;;
68866;SDS011;56451;44.804;20.476;2023-03-20T07:34:46;28.33;;;18.25;;
68866;SDS011;56451;44.804;20.476;2023-03-20T07:37:16;28.60;;;18.23;;
68866;SDS011;56451;44.804;20.476;2023-03-20T07:39:53;29.33;;;17.23;;
68866;SDS011;56451;44.804;20.476;2023-03-20T07:42:28;25.80;;;15.32;;
68866;SDS011;56451;44.804;20.476;2023-03-20T07:44:58;22.53;;;16.20;;
68866;SDS011;56451;44.804;20.476;2023-03-20T07:47:24;29.17;;;15.00;;
68866;SDS011;56451;44.804;20.476;2023-03-20T07:49:50;24.95;;;15.18;;
68866;SDS011;56451;44.804;20.476;2023-03-20T07:52:18;17.90;;;11.68;;
68866;SDS011;56451;44.804;20.476;2023-03-20T07:54:45;25.88;;;14.40;;
68866;SDS011;56451;44.804;20.476;2023-03-20T07:57:11;25.00;;;14.33;;
68866;SDS011;56451;44.804;20.476;2023-03-20T07:59:37;30.50;;;17.63;;
68866;SDS011;56451;44.804;20.476;2023-03-20T08:02:02;31.77;;;18.35;;
68866;SDS011;56451;44.804;20.476;2023-03-20T08:04:28;34.53;;;19.08;;
68866;SDS011;56451;44.804;20.476;2023-03-20T08:06:54;33.97;;;19.77;;
68866;SDS011;56451;44.804;20.476;2023-03-20T08:09:20;31.48;;;18.40;;
68866;SDS011;56451;44.804;20.476;2023-03-20T08:11:46;30.25;;;17.45;;
68866;SDS011;56451;44.804;20.476;2023-03-20T08:14:12;33.93;;;19.90;;
68866;SDS011;56451;44.804;20.476;2023-03-20T08:16:38;28.70;;;15.85;;
68866;SDS011;56451;44.804;20.476;2023-03-20T08:19:04;29.58;;;17.95;;
68866;SDS011;56451;44.804;20.476;2023-03-20T08:21:31;35.13;;;19.50;;
68866;SDS011;56451;44.804;20.476;2023-03-20T08:23:57;36.60;;;20.07;;
68866;SDS011;56451;44.804;20.476;2023-03-20T08:26:24;35.10;;;19.20;;
68866;SDS011;56451;44.804;20.476;2023-03-20T08:28:50;37.60;;;22.30;;
68866;SDS011;56451;44.804;20.476;2023-03-20T08:31:16;40.20;;;20.85;;
68866;SDS011;56451;44.804;20.476;2023-03-20T08:33:43;37.80;;;21.33;;
68866;SDS011;56451;44.804;20.476;2023-03-20T08:36:11;37.17;;;21.77;;
68866;SDS011;56451;44.804;20.476;2023-03-20T08:38:39;39.17;;;21.77;;
68866;SDS011;56451;44.804;20.476;2023-03-20T08:41:05;40.15;;;21.45;;
68866;SDS011;56451;44.804;20.476;2023-03-20T08:43:32;37.67;;;22.83;;
68866;SDS011;56451;44.804;20.476;2023-03-20T08:45:58;39.27;;;22.50;;
68866;SDS011;56451;44.804;20.476;2023-03-20T08:48:24;40.85;;;22.00;;
68866;SDS011;56451;44.804;20.476;2023-03-20T08:50:50;30.00;;;18.80;;
68866;SDS011;56451;44.804;20.476;2023-03-20T08:53:16;29.67;;;19.25;;
68866;SDS011;56451;44.804;20.476;2023-03-20T08:55:48;31.60;;;19.20;;
68866;SDS011;56451;44.804;20.476;2023-03-20T08:58:15;40.38;;;22.30;;
68866;SDS011;56451;44.804;20.476;2023-03-20T09:00:42;29.27;;;17.58;;
68866;SDS011;56451;44.804;20.476;2023-03-20T09:03:10;29.05;;;17.67;;
68866;SDS011;56451;44.804;20.476;2023-03-20T09:05:42;26.52;;;16.23;;
68866;SDS011;56451;44.804;20.476;2023-03-20T09:08:09;29.00;;;16.23;;
68866;SDS011;56451;44.804;20.476;2023-03-20T09:10:35;26.33;;;15.98;;
68866;SDS011;56451;44.804;20.476;2023-03-20T09:13:01;23.20;;;14.52;;
68866;SDS011;56451;44.804;20.476;2023-03-20T09:15:27;22.58;;;13.88;;
68866;SDS011;56451;44.804;20.476;2023-03-20T09:17:53;24.47;;;13.37;;
68866;SDS011;56451;44.804;20.476;2023-03-20T09:20:19;20.27;;;13.75;;
68866;SDS011;56451;44.804;20.476;2023-03-20T09:22:45;25.33;;;14.55;;
68866;SDS011;56451;44.804;20.476;2023-03-20T09:25:11;24.35;;;14.50;;
68866;SDS011;56451;44.804;20.476;2023-03-20T09:27:38;28.95;;;18.23;;
68866;SDS011;56451;44.804;20.476;2023-03-20T09:30:05;21.40;;;14.47;;
68866;SDS011;56451;44.804;20.476;2023-03-20T09:32:32;29.02;;;16.40;;
68866;SDS011;56451;44.804;20.476;2023-03-20T09:34:59;28.75;;;18.17;;
68866;SDS011;56451;44.804;20.476;2023-03-20T09:37:26;24.13;;;15.05;;
68866;SDS011;56451;44.804;20.476;2023-03-20T09:39:52;25.35;;;14.25;;
68866;SDS011;56451;44.804;20.476;2023-03-20T09:45:19;23.98;;;14.75;;
68866;SDS011;56451;44.804;20.476;2023-03-20T09:53:00;24.80;;;16.45;;
68866;SDS011;56451;44.804;20.476;2023-03-20T09:55:33;24.00;;;14.63;;
68866;SDS011;56451;44.804;20.476;2023-03-20T09:58:03;23.30;;;16.13;;
68866;SDS011;56451;44.804;20.476;2023-03-20T10:00:35;21.02;;;14.00;;
68866;SDS011;56451;44.804;20.476;2023-03-20T10:03:05;18.08;;;11.82;;
68866;SDS011;56451;44.804;20.476;2023-03-20T10:06:04;19.77;;;13.80;;
68866;SDS011;56451;44.804;20.476;2023-03-20T10:08:36;21.97;;;12.73;;
68866;SDS011;56451;44.804;20.476;2023-03-20T10:13:47;17.48;;;12.27;;
68866;SDS011;56451;44.804;20.476;2023-03-20T10:21:48;14.20;;;9.80;;
68866;SDS011;56451;44.804;20.476;2023-03-20T10:25:02;16.23;;;11.43;;
68866;SDS011;56451;44.804;20.476;2023-03-20T10:30:25;15.57;;;10.00;;
68866;SDS011;56451;44.804;20.476;2023-03-20T10:41:12;19.15;;;11.80;;
68866;SDS011;56451;44.804;20.476;2023-03-20T10:43:42;17.67;;;11.40;;
68866;SDS011;56451;44.804;20.476;2023-03-20T10:46:13;19.08;;;10.50;;
68866;SDS011;56451;44.804;20.476;2023-03-20T10:48:48;18.87;;;11.90;;
68866;SDS011;56451;44.804;20.476;2023-03-20T10:51:20;18.77;;;14.43;;
68866;SDS011;56451;44.804;20.476;2023-03-20T10:53:53;28.02;;;16.60;;
68866;SDS011;56451;44.804;20.476;2023-03-20T10:58:58;15.52;;;10.05;;
68866;SDS011;56451;44.804;20.476;2023-03-20T11:01:34;15.50;;;10.30;;
68866;SDS011;56451;44.804;20.476;2023-03-20T11:04:00;15.93;;;10.05;;
68866;SDS011;56451;44.804;20.476;2023-03-20T11:06:27;14.90;;;9.85;;
68866;SDS011;56451;44.804;20.476;2023-03-20T11:09:06;15.13;;;9.80;;
68866;SDS011;56451;44.804;20.476;2023-03-20T11:11:44;11.73;;;9.60;;
68866;SDS011;56451;44.804;20.476;2023-03-20T11:14:15;15.65;;;9.95;;
68866;SDS011;56451;44.804;20.476;2023-03-20T11:16:46;15.68;;;12.82;;
68866;SDS011;56451;44.804;20.476;2023-03-20T11:19:14;13.93;;;9.43;;
68866;SDS011;56451;44.804;20.476;2023-03-20T11:21:52;16.73;;;8.63;;
68866;SDS011;56451;44.804;20.476;2023-03-20T11:24:22;13.67;;;9.20;;
68866;SDS011;56451;44.804;20.476;2023-03-20T11:26:50;13.60;;;9.18;;
68866;SDS011;56451;44.804;20.476;2023-03-20T11:29:50;13.02;;;9.38;;
68866;SDS011;56451;44.804;20.476;2023-03-20T11:32:25;20.17;;;12.00;;
68866;SDS011;56451;44.804;20.476;2023-03-20T11:35:09;15.00;;;9.23;;
68866;SDS011;56451;44.804;20.476;2023-03-20T11:37:45;11.97;;;7.70;;
68866;SDS011;56451;44.804;20.476;2023-03-20T11:40:15;15.52;;;10.02;;
68866;SDS011;56451;44.804;20.476;2023-03-20T11:45:34;47.47;;;36.08;;
68866;SDS011;56451;44.804;20.476;2023-03-20T11:48:02;18.55;;;11.27;;
68866;SDS011;56451;44.804;20.476;2023-03-20T11:50:30;16.80;;;10.73;;
68866;SDS011;56451;44.804;20.476;2023-03-20T11:53:00;18.08;;;10.05;;
68866;SDS011;56451;44.804;20.476;2023-03-20T11:55:28;14.65;;;9.90;;
68866;SDS011;56451;44.804;20.476;2023-03-20T11:58:05;15.45;;;10.35;;
68866;SDS011;56451;44.804;20.476;2023-03-20T12:00:40;20.83;;;9.75;;
68866;SDS011;56451;44.804;20.476;2023-03-20T12:06:12;16.75;;;9.43;;
68866;SDS011;56451;44.804;20.476;2023-03-20T12:09:02;33.72;;;19.33;;
68866;SDS011;56451;44.804;20.476;2023-03-20T12:11:39;17.30;;;11.07;;
68866;SDS011;56451;44.804;20.476;2023-03-20T12:14:27;14.63;;;10.45;;
68866;SDS011;56451;44.804;20.476;2023-03-20T12:17:10;16.23;;;10.73;;
68866;SDS011;56451;44.804;20.476;2023-03-20T12:19:50;16.58;;;10.07;;
68866;SDS011;56451;44.804;20.476;2023-03-20T12:22:23;18.33;;;11.75;;
68866;SDS011;56451;44.804;20.476;2023-03-20T12:25:34;19.25;;;10.27;;
68866;SDS011;56451;44.804;20.476;2023-03-20T12:28:03;21.75;;;18.55;;
68866;SDS011;56451;44.804;20.476;2023-03-20T12:30:50;25.47;;;20.07;;
68866;SDS011;56451;44.804;20.476;2023-03-20T12:33:32;14.57;;;9.70;;
68866;SDS011;56451;44.804;20.476;2023-03-20T12:36:05;12.95;;;8.20;;
68866;SDS011;56451;44.804;20.476;2023-03-20T12:38:39;15.25;;;8.38;;
68866;SDS011;56451;44.804;20.476;2023-03-20T12:41:21;15.10;;;9.07;;
68866;SDS011;56451;44.804;20.476;2023-03-20T12:51:23;14.73;;;8.02;;
68866;SDS011;56451;44.804;20.476;2023-03-20T12:59:50;13.70;;;8.43;;
68866;SDS011;56451;44.804;20.476;2023-03-20T13:02:26;10.25;;;7.40;;
68866;SDS011;56451;44.804;20.476;2023-03-20T13:08:14;12.33;;;7.17;;
68866;SDS011;56451;44.804;20.476;2023-03-20T13:13:41;11.25;;;7.80;;
68866;SDS011;56451;44.804;20.476;2023-03-20T13:16:43;13.73;;;10.20;;
68866;SDS011;56451;44.804;20.476;2023-03-20T13:19:15;12.80;;;8.02;;
68866;SDS011;56451;44.804;20.476;2023-03-20T13:27:29;9.07;;;6.93;;
68866;SDS011;56451;44.804;20.476;2023-03-20T13:33:08;10.73;;;6.75;;
68866;SDS011;56451;44.804;20.476;2023-03-20T13:38:19;10.82;;;7.60;;
68866;SDS011;56451;44.804;20.476;2023-03-20T13:40:54;12.68;;;7.13;;
68866;SDS011;56451;44.804;20.476;2023-03-20T13:48:49;13.27;;;7.23;;
68866;SDS011;56451;44.804;20.476;2023-03-20T14:05:37;15.77;;;7.65;;
68866;SDS011;56451;44.804;20.476;2023-03-20T14:14:13;9.60;;;6.10;;
68866;SDS011;56451;44.804;20.476;2023-03-20T14:16:41;8.93;;;5.53;;
68866;SDS011;56451;44.804;20.476;2023-03-20T14:19:17;7.90;;;5.32;;
68866;SDS011;56451;44.804;20.476;2023-03-20T14:21:46;8.52;;;5.50;;
68866;SDS011;56451;44.804;20.476;2023-03-20T14:24:14;10.23;;;5.40;;
68866;SDS011;56451;44.804;20.476;2023-03-20T14:26:43;13.82;;;5.80;;
68866;SDS011;56451;44.804;20.476;2023-03-20T14:31:39;8.77;;;4.55;;
68866;SDS011;56451;44.804;20.476;2023-03-20T14:34:11;12.60;;;6.38;;
68866;SDS011;56451;44.804;20.476;2023-03-20T14:47:23;5.75;;;3.33;;
68866;SDS011;56451;44.804;20.476;2023-03-20T14:50:09;8.35;;;4.20;;
68866;SDS011;56451;44.804;20.476;2023-03-20T14:57:49;6.43;;;3.30;;
68866;SDS011;56451;44.804;20.476;2023-03-20T15:00:19;5.45;;;3.00;;
68866;SDS011;56451;44.804;20.476;2023-03-20T15:02:47;6.00;;;2.55;;
68866;SDS011;56451;44.804;20.476;2023-03-20T15:05:23;6.40;;;2.87;;
68866;SDS011;56451;44.804;20.476;2023-03-20T15:07:57;5.85;;;3.05;;
68866;SDS011;56451;44.804;20.476;2023-03-20T15:10:31;6.25;;;2.67;;
68866;SDS011;56451;44.804;20.476;2023-03-20T15:13:03;6.57;;;3.50;;
68866;SDS011;56451;44.804;20.476;2023-03-20T15:15:31;6.82;;;2.95;;
68866;SDS011;56451;44.804;20.476;2023-03-20T15:18:05;4.87;;;2.53;;
68866;SDS011;56451;44.804;20.476;2023-03-20T15:20:36;16.73;;;5.07;;
68866;SDS011;56451;44.804;20.476;2023-03-20T15:23:02;10.55;;;3.17;;
68866;SDS011;56451;44.804;20.476;2023-03-20T15:25:31;5.55;;;2.33;;
68866;SDS011;56451;44.804;20.476;2023-03-20T15:28:05;20.33;;;6.97;;
68866;SDS011;56451;44.804;20.476;2023-03-20T15:30:35;10.70;;;4.65;;
68866;SDS011;56451;44.804;20.476;2023-03-20T15:33:03;4.70;;;2.75;;
68866;SDS011;56451;44.804;20.476;2023-03-20T15:35:31;7.97;;;3.38;;
68866;SDS011;56451;44.804;20.476;2023-03-20T15:37:57;8.52;;;3.83;;
68866;SDS011;56451;44.804;20.476;2023-03-20T15:40:30;4.63;;;2.47;;
68866;SDS011;56451;44.804;20.476;2023-03-20T15:45:30;4.82;;;2.60;;
68866;SDS011;56451;44.804;20.476;2023-03-20T15:48:08;7.63;;;2.70;;
68866;SDS011;56451;44.804;20.476;2023-03-20T15:50:40;4.35;;;2.50;;
68866;SDS011;56451;44.804;20.476;2023-03-20T15:53:14;14.00;;;4.27;;
68866;SDS011;56451;44.804;20.476;2023-03-20T15:55:51;8.73;;;3.45;;
68866;SDS011;56451;44.804;20.476;2023-03-20T15:58:20;7.18;;;3.42;;
68866;SDS011;56451;44.804;20.476;2023-03-20T16:00:46;9.02;;;3.45;;
68866;SDS011;56451;44.804;20.476;2023-03-20T16:03:14;16.33;;;5.75;;
68866;SDS011;56451;44.804;20.476;2023-03-20T16:05:44;6.17;;;3.57;;
68866;SDS011;56451;44.804;20.476;2023-03-20T16:08:13;6.38;;;3.92;;
68866;SDS011;56451;44.804;20.476;2023-03-20T16:10:44;6.85;;;4.10;;
68866;SDS011;56451;44.804;20.476;2023-03-20T16:13:13;8.35;;;4.15;;
68866;SDS011;56451;44.804;20.476;2023-03-20T16:15:43;9.52;;;4.82;;
68866;SDS011;56451;44.804;20.476;2023-03-20T16:18:13;8.40;;;4.70;;
68866;SDS011;56451;44.804;20.476;2023-03-20T16:20:48;8.75;;;4.70;;
68866;SDS011;56451;44.804;20.476;2023-03-20T16:23:43;10.93;;;5.07;;
68866;SDS011;56451;44.804;20.476;2023-03-20T16:26:11;9.15;;;4.60;;
68866;SDS011;56451;44.804;20.476;2023-03-20T16:28:41;10.88;;;5.05;;
68866;SDS011;56451;44.804;20.476;2023-03-20T16:31:12;7.60;;;4.10;;
68866;SDS011;56451;44.804;20.476;2023-03-20T16:33:39;11.50;;;4.00;;
68866;SDS011;56451;44.804;20.476;2023-03-20T16:36:06;8.52;;;3.70;;
68866;SDS011;56451;44.804;20.476;2023-03-20T16:38:34;5.65;;;3.67;;
68866;SDS011;56451;44.804;20.476;2023-03-20T16:41:15;7.05;;;3.65;;
68866;SDS011;56451;44.804;20.476;2023-03-20T16:44:16;8.03;;;3.83;;
68866;SDS011;56451;44.804;20.476;2023-03-20T16:46:56;10.80;;;3.45;;
68866;SDS011;56451;44.804;20.476;2023-03-20T16:52:29;9.35;;;3.40;;
68866;SDS011;56451;44.804;20.476;2023-03-20T16:55:00;6.13;;;3.28;;
68866;SDS011;56451;44.804;20.476;2023-03-20T16:57:26;6.47;;;2.80;;
68866;SDS011;56451;44.804;20.476;2023-03-20T16:59:59;7.50;;;3.20;;
68866;SDS011;56451;44.804;20.476;2023-03-20T17:02:34;8.35;;;2.80;;
68866;SDS011;56451;44.804;20.476;2023-03-20T17:05:06;6.15;;;3.80;;
68866;SDS011;56451;44.804;20.476;2023-03-20T17:07:36;9.50;;;3.50;;
68866;SDS011;56451;44.804;20.476;2023-03-20T17:12:41;8.50;;;3.95;;
68866;SDS011;56451;44.804;20.476;2023-03-20T17:15:12;10.27;;;3.97;;
68866;SDS011;56451;44.804;20.476;2023-03-20T17:17:40;10.07;;;3.55;;
68866;SDS011;56451;44.804;20.476;2023-03-20T17:20:10;8.40;;;3.13;;
68866;SDS011;56451;44.804;20.476;2023-03-20T17:22:43;4.43;;;2.87;;
68866;SDS011;56451;44.804;20.476;2023-03-20T17:25:09;5.00;;;2.60;;